createdAt,value
2023-03-16T00:00:57.278Z,26.80
2023-03-16T00:03:24.323Z,27.92
2023-03-16T00:05:53.189Z,27.58
2023-03-16T00:08:23.338Z,29.33
2023-03-16T00:10:50.477Z,27.42
2023-03-16T00:13:19.139Z,31.52
2023-03-16T00:15:57.487Z,28.85
2023-03-16T00:18:33.010Z,29.90
2023-03-16T00:21:06.496Z,28.40
2023-03-16T00:23:35.943Z,29.67
2023-03-16T00:26:05.539Z,29.58
2023-03-16T00:28:35.311Z,29.33
2023-03-16T00:31:07.408Z,28.10
2023-03-16T00:33:37.396Z,28.27
2023-03-16T00:36:11.257Z,34.65
2023-03-16T00:38:45.639Z,26.83
2023-03-16T00:43:45.520Z,26.23
2023-03-16T00:46:15.670Z,32.83
2023-03-16T00:48:48.031Z,25.88
2023-03-16T00:51:20.432Z,28.58
2023-03-16T00:53:49.482Z,28.45
2023-03-16T00:56:19.718Z,26.17
2023-03-16T00:58:49.397Z,27.75
2023-03-16T01:01:19.138Z,27.95
2023-03-16T01:03:48.821Z,34.35
2023-03-16T01:06:26.868Z,27.30
2023-03-16T01:08:59.837Z,25.95
2023-03-16T01:11:29.795Z,28.92
2023-03-16T01:14:02.225Z,27.50
2023-03-16T01:16:34.943Z,28.65
2023-03-16T01:19:01.783Z,28.75
2023-03-16T01:21:29.336Z,26.27
2023-03-16T01:24:01.762Z,28.23
2023-03-16T01:26:28.376Z,27.08
2023-03-16T01:28:55.082Z,28.27
2023-03-16T01:31:22.662Z,26.65
2023-03-16T01:33:55.646Z,28.15
2023-03-16T01:36:22.548Z,27.42
2023-03-16T01:38:52.471Z,26.50
2023-03-16T01:41:19.729Z,26.20
2023-03-16T01:43:47.465Z,27.55
2023-03-16T01:46:30.449Z,27.95
2023-03-16T01:49:25.298Z,27.13
2023-03-16T01:52:03.787Z,27.20
2023-03-16T01:54:32.225Z,26.13
2023-03-16T01:57:18.368Z,26.25
2023-03-16T01:59:53.110Z,26.90
2023-03-16T02:02:24.108Z,26.27
2023-03-16T02:05:07.233Z,28.20
2023-03-16T02:07:43.060Z,26.70
2023-03-16T02:10:18.548Z,27.17
2023-03-16T02:12:55.985Z,31.48
2023-03-16T02:15:23.180Z,25.70
2023-03-16T02:17:50.555Z,27.95
2023-03-16T02:20:29.243Z,33.35
2023-03-16T02:22:56.387Z,26.80
2023-03-16T02:25:29.315Z,27.15
2023-03-16T02:28:29.661Z,27.00
2023-03-16T02:30:57.114Z,26.85
2023-03-16T02:33:29.418Z,28.30
2023-03-16T02:36:00.566Z,26.50
2023-03-16T02:38:31.069Z,25.60
2023-03-16T02:41:01.761Z,26.92
2023-03-16T02:43:40.713Z,27.45
2023-03-16T02:46:11.390Z,26.50
2023-03-16T02:49:01.289Z,26.58
2023-03-16T02:51:32.434Z,26.63
2023-03-16T02:54:02.044Z,26.10
2023-03-16T02:56:28.983Z,32.15
2023-03-16T02:58:59.321Z,25.50
2023-03-16T03:01:26.462Z,26.05
2023-03-16T03:03:59.085Z,25.42
2023-03-16T03:06:32.761Z,26.83
2023-03-16T03:09:06.662Z,26.48
2023-03-16T03:11:34.010Z,25.73
2023-03-16T03:14:02.772Z,28.33
2023-03-16T03:16:33.290Z,26.13
2023-03-16T03:19:03.427Z,26.10
2023-03-16T03:21:30.179Z,25.52
2023-03-16T03:24:04.391Z,27.23
2023-03-16T03:26:35.214Z,26.85
2023-03-16T03:29:02.525Z,26.92
2023-03-16T03:31:30.175Z,27.02
2023-03-16T03:34:02.872Z,27.10
2023-03-16T03:36:35.119Z,25.90
2023-03-16T03:39:08.737Z,26.45
2023-03-16T03:41:37.148Z,26.25
2023-03-16T03:44:07.687Z,26.08
2023-03-16T03:46:40.140Z,26.02
2023-03-16T03:49:06.998Z,24.77
2023-03-16T03:51:37.010Z,25.50
2023-03-16T03:54:04.229Z,27.10
2023-03-16T03:56:35.181Z,28.55
2023-03-16T03:59:10.542Z,26.63
2023-03-16T04:01:37.134Z,25.48
2023-03-16T04:04:07.032Z,26.90
2023-03-16T04:06:35.143Z,27.27
2023-03-16T04:09:02.456Z,27.25
2023-03-16T04:11:29.196Z,33.28
2023-03-16T04:14:01.999Z,27.65
2023-03-16T04:16:28.655Z,26.75
2023-03-16T04:18:55.460Z,26.52
2023-03-16T04:21:24.021Z,27.98
2023-03-16T04:23:54.540Z,27.15
2023-03-16T04:26:28.478Z,26.83
2023-03-16T04:28:56.148Z,26.10
2023-03-16T04:31:25.685Z,26.88
2023-03-16T04:33:56.399Z,28.25
2023-03-16T04:36:26.544Z,25.52
2023-03-16T04:39:02.717Z,29.83
2023-03-16T04:41:29.331Z,24.95
2023-03-16T04:44:00.573Z,26.70
2023-03-16T04:46:31.759Z,25.63
2023-03-16T04:48:58.726Z,26.30
2023-03-16T04:51:27.086Z,32.13
2023-03-16T04:54:00.075Z,33.45
2023-03-16T04:56:30.373Z,26.75
2023-03-16T04:59:05.810Z,25.52
2023-03-16T05:01:33.635Z,32.88
2023-03-16T05:04:00.327Z,27.40
2023-03-16T05:06:30.538Z,27.67
2023-03-16T05:09:01.040Z,25.10
2023-03-16T05:11:35.469Z,24.83
2023-03-16T05:16:33.396Z,26.63
2023-03-16T05:19:04.436Z,25.38
2023-03-16T05:21:32.652Z,27.05
2023-03-16T05:23:59.819Z,26.25
2023-03-16T05:26:33.207Z,25.60
2023-03-16T05:29:03.351Z,26.67
2023-03-16T05:31:34.279Z,26.52
2023-03-16T05:34:06.829Z,27.15
2023-03-16T05:36:36.015Z,31.45
2023-03-16T05:39:05.901Z,26.35
2023-03-16T05:41:36.533Z,27.38
2023-03-16T05:44:04.740Z,27.88
2023-03-16T05:46:40.272Z,27.75
2023-03-16T05:49:06.996Z,31.63
2023-03-16T05:51:42.084Z,25.48
2023-03-16T05:54:08.806Z,26.63
2023-03-16T05:56:35.477Z,25.60
2023-03-16T05:59:07.297Z,26.10
2023-03-16T06:01:38.635Z,26.13
2023-03-16T06:04:05.565Z,28.92
2023-03-16T06:06:32.307Z,26.02
2023-03-16T06:08:59.050Z,35.03
2023-03-16T06:11:25.736Z,26.70
2023-03-16T06:14:00.675Z,25.48
2023-03-16T06:16:37.050Z,26.65
2023-03-16T06:19:03.767Z,25.77
2023-03-16T06:21:30.435Z,25.70
2023-03-16T06:23:57.067Z,25.55
2023-03-16T06:26:23.850Z,25.23
2023-03-16T06:28:50.548Z,24.85
2023-03-16T06:31:20.488Z,26.55
2023-03-16T06:33:47.285Z,32.33
2023-03-16T06:36:15.113Z,26.27
2023-03-16T06:38:41.763Z,27.88
2023-03-16T06:41:08.621Z,34.75
2023-03-16T06:43:35.441Z,30.65
2023-03-16T06:46:03.477Z,28.27
2023-03-16T06:48:30.245Z,29.35
2023-03-16T06:50:56.930Z,28.40
2023-03-16T06:53:26.976Z,34.60
2023-03-16T06:55:53.584Z,30.02
2023-03-16T06:58:20.389Z,27.25
2023-03-16T07:00:47.353Z,28.08
2023-03-16T07:03:14.094Z,33.03
2023-03-16T07:05:40.724Z,29.77
2023-03-16T07:08:07.336Z,28.27
2023-03-16T07:10:36.845Z,29.48
2023-03-16T07:13:04.351Z,29.65
2023-03-16T07:15:31.433Z,29.90
2023-03-16T07:17:58.079Z,36.72
2023-03-16T07:20:25.457Z,32.58
2023-03-16T07:22:54.779Z,32.20
2023-03-16T07:25:21.514Z,27.80
2023-03-16T07:27:48.368Z,28.60
2023-03-16T07:30:23.723Z,28.50
2023-03-16T07:32:50.366Z,26.05
2023-03-16T07:35:20.260Z,27.85
2023-03-16T07:37:46.898Z,30.38
2023-03-16T07:40:14.481Z,28.67
2023-03-16T07:42:44.262Z,29.40
2023-03-16T07:45:12.819Z,29.95
2023-03-16T07:47:41.963Z,29.38
2023-03-16T07:50:10.303Z,29.00
2023-03-16T07:52:37.621Z,30.48
2023-03-16T07:55:05.536Z,32.17
2023-03-16T07:57:32.682Z,30.13
2023-03-16T07:59:59.438Z,33.55
2023-03-16T08:02:26.202Z,30.30
2023-03-16T08:04:52.827Z,34.63
2023-03-16T08:07:25.655Z,29.45
2023-03-16T08:09:52.676Z,28.92
2023-03-16T08:12:19.522Z,28.65
2023-03-16T08:14:47.390Z,30.60
2023-03-16T08:17:14.050Z,29.52
2023-03-16T08:19:40.950Z,29.85
2023-03-16T08:22:10.747Z,29.75
2023-03-16T08:24:37.547Z,31.38
2023-03-16T08:27:04.707Z,31.67
2023-03-16T08:29:38.194Z,31.30
2023-03-16T08:32:07.722Z,30.48
2023-03-16T08:34:39.250Z,29.42
2023-03-16T08:37:06.814Z,36.53
2023-03-16T08:39:37.151Z,30.42
2023-03-16T08:42:08.444Z,29.20
2023-03-16T08:44:38.396Z,27.48
2023-03-16T08:47:05.271Z,28.85
2023-03-16T08:49:31.988Z,28.77
2023-03-16T08:52:00.772Z,29.33
2023-03-16T08:54:27.562Z,29.58
2023-03-16T08:56:54.185Z,30.27
2023-03-16T08:59:29.743Z,28.75
2023-03-16T09:01:57.055Z,32.75
2023-03-16T09:04:23.868Z,28.77
2023-03-16T09:07:09.853Z,26.15
2023-03-16T09:09:40.478Z,27.48
2023-03-16T09:12:07.439Z,25.73
2023-03-16T09:14:37.990Z,26.38
2023-03-16T09:17:11.901Z,25.67
2023-03-16T09:22:25.830Z,24.73
2023-03-16T09:24:58.284Z,30.02
2023-03-16T09:27:25.464Z,25.50
2023-03-16T09:29:55.820Z,25.63
2023-03-16T09:32:22.897Z,24.10
2023-03-16T09:34:49.629Z,26.20
2023-03-16T09:37:16.442Z,25.05
2023-03-16T09:39:47.416Z,25.55
2023-03-16T09:42:41.072Z,24.92
2023-03-16T09:45:26.698Z,24.55
2023-03-16T09:47:57.990Z,25.63
2023-03-16T09:50:47.383Z,26.13
2023-03-16T09:53:33.300Z,27.17
2023-03-16T09:56:11.470Z,29.73
2023-03-16T09:58:38.567Z,26.25
2023-03-16T10:01:51.551Z,31.00
2023-03-16T10:04:28.007Z,27.13
2023-03-16T10:07:24.020Z,26.40
2023-03-16T10:10:18.500Z,25.70
2023-03-16T10:12:52.679Z,24.33
2023-03-16T10:15:23.913Z,25.35
2023-03-16T10:17:58.582Z,23.75
2023-03-16T10:20:28.269Z,25.75
2023-03-16T10:23:02.243Z,23.95
2023-03-16T10:25:47.280Z,28.58
2023-03-16T10:28:27.212Z,25.55
2023-03-16T10:30:56.779Z,25.67
2023-03-16T10:33:30.305Z,23.80
2023-03-16T10:36:04.276Z,25.02
2023-03-16T10:41:23.282Z,24.25
2023-03-16T10:44:12.396Z,24.05
2023-03-16T10:47:05.997Z,23.80
2023-03-16T10:49:42.290Z,26.15
2023-03-16T10:52:37.000Z,24.52
2023-03-16T10:55:17.079Z,23.70
2023-03-16T10:57:50.266Z,23.83
2023-03-16T11:00:29.041Z,23.83
2023-03-16T11:02:59.884Z,22.80
2023-03-16T11:05:32.335Z,25.88
2023-03-16T11:08:09.709Z,22.20
2023-03-16T11:10:49.392Z,25.08
2023-03-16T11:13:22.756Z,22.33
2023-03-16T11:15:57.522Z,23.88
2023-03-16T11:18:39.215Z,23.10
2023-03-16T11:21:17.423Z,23.73
2023-03-16T11:23:56.665Z,24.05
2023-03-16T11:26:34.968Z,23.77
2023-03-16T11:29:18.881Z,23.52
2023-03-16T11:31:57.935Z,24.23
2023-03-16T11:34:29.057Z,26.75
2023-03-16T11:37:02.218Z,24.35
2023-03-16T11:39:44.404Z,23.58
2023-03-16T11:42:33.329Z,23.58
2023-03-16T11:45:11.359Z,22.15
2023-03-16T11:48:03.664Z,23.25
2023-03-16T11:50:51.695Z,22.45
2023-03-16T11:53:25.888Z,22.63
2023-03-16T11:56:24.072Z,21.13
2023-03-16T11:59:09.186Z,21.90
2023-03-16T12:02:00.223Z,23.10
2023-03-16T12:05:26.219Z,33.08
2023-03-16T12:07:58.533Z,23.67
2023-03-16T12:10:47.521Z,21.80
2023-03-16T12:13:40.137Z,21.77
2023-03-16T12:16:13.507Z,22.00
2023-03-16T12:18:49.824Z,21.63
2023-03-16T12:21:26.219Z,24.80
2023-03-16T12:23:56.622Z,21.48
2023-03-16T12:26:30.434Z,20.63
2023-03-16T12:29:04.621Z,22.63
2023-03-16T12:31:47.620Z,22.65
2023-03-16T12:34:35.878Z,21.45
2023-03-16T12:37:36.316Z,22.45
2023-03-16T12:40:12.177Z,25.20
2023-03-16T12:42:50.707Z,22.08
2023-03-16T12:45:36.108Z,21.98
2023-03-16T12:48:25.036Z,21.98
2023-03-16T12:50:58.903Z,22.25
2023-03-16T12:55:57.337Z,22.17
2023-03-16T12:58:26.227Z,21.17
2023-03-16T13:00:58.757Z,22.45
2023-03-16T13:03:26.784Z,22.55
2023-03-16T13:06:00.844Z,22.50
2023-03-16T13:08:29.119Z,22.23
2023-03-16T13:11:10.724Z,21.13
2023-03-16T13:14:01.899Z,21.92
2023-03-16T13:16:32.400Z,22.52
2023-03-16T13:18:59.298Z,24.05
2023-03-16T13:21:45.001Z,22.95
2023-03-16T13:24:19.670Z,22.40
2023-03-16T13:26:47.520Z,22.00
2023-03-16T13:29:29.507Z,22.38
2023-03-16T13:32:16.108Z,22.85
2023-03-16T13:34:56.606Z,26.50
2023-03-16T13:37:24.449Z,21.75
2023-03-16T13:39:59.968Z,23.45
2023-03-16T13:42:31.559Z,21.08
2023-03-16T13:44:59.678Z,21.17
2023-03-16T13:47:28.239Z,21.95
2023-03-16T13:49:59.637Z,25.08
2023-03-16T13:52:31.364Z,20.02
2023-03-16T13:54:59.736Z,21.05
2023-03-16T13:57:29.701Z,20.20
2023-03-16T14:00:27.735Z,21.33
2023-03-16T14:03:03.301Z,20.58
2023-03-16T14:05:36.112Z,25.75
2023-03-16T14:08:05.123Z,20.65
2023-03-16T14:10:34.686Z,21.05
2023-03-16T14:13:38.430Z,19.55
2023-03-16T14:16:18.897Z,20.48
2023-03-16T14:18:57.764Z,21.63
2023-03-16T14:21:34.241Z,19.33
2023-03-16T14:24:07.522Z,20.48
2023-03-16T14:26:47.882Z,20.58
2023-03-16T14:29:28.372Z,22.70
2023-03-16T14:31:55.693Z,19.63
2023-03-16T14:34:50.119Z,20.60
2023-03-16T14:37:35.679Z,18.85
2023-03-16T14:40:06.160Z,19.25
2023-03-16T14:42:35.997Z,19.45
2023-03-16T14:45:07.857Z,19.98
2023-03-16T14:47:42.759Z,19.85
2023-03-16T14:50:25.338Z,20.20
2023-03-16T14:52:59.365Z,25.92
2023-03-16T14:55:26.096Z,20.20
2023-03-16T14:57:53.360Z,20.52
2023-03-16T15:00:22.123Z,19.25
2023-03-16T15:03:14.222Z,19.48
2023-03-16T15:05:42.916Z,20.88
2023-03-16T15:08:46.304Z,19.73
2023-03-16T15:11:15.480Z,21.20
2023-03-16T15:13:42.117Z,19.73
2023-03-16T15:16:14.084Z,19.60
2023-03-16T15:19:25.483Z,20.83
2023-03-16T15:21:52.230Z,20.45
2023-03-16T15:24:18.933Z,27.48
2023-03-16T15:26:45.577Z,19.73
2023-03-16T15:29:13.486Z,20.33
2023-03-16T15:31:40.244Z,20.88
2023-03-16T15:34:07.291Z,19.77
2023-03-16T15:36:34.011Z,19.42
2023-03-16T15:39:02.144Z,19.95
2023-03-16T15:41:38.138Z,20.30
2023-03-16T15:44:13.114Z,18.75
2023-03-16T15:46:39.954Z,18.40
2023-03-16T15:49:06.651Z,20.85
2023-03-16T15:51:33.663Z,19.23
2023-03-16T15:54:08.926Z,20.20
2023-03-16T15:56:54.337Z,22.35
2023-03-16T15:59:25.723Z,19.08
2023-03-16T16:01:54.832Z,19.30
2023-03-16T16:04:23.628Z,19.55
2023-03-16T16:07:02.226Z,19.85
2023-03-16T16:09:29.229Z,18.65
2023-03-16T16:11:56.413Z,19.17
2023-03-16T16:14:25.617Z,21.77
2023-03-16T16:16:54.441Z,23.23
2023-03-16T16:19:21.690Z,17.77
2023-03-16T16:21:48.912Z,17.45
2023-03-16T16:24:20.806Z,17.65
2023-03-16T16:26:55.327Z,18.77
2023-03-16T16:29:24.919Z,18.00
2023-03-16T16:31:52.473Z,22.35
2023-03-16T16:34:24.045Z,18.60
2023-03-16T16:36:50.952Z,18.02
2023-03-16T16:39:20.540Z,18.48
2023-03-16T16:41:49.348Z,18.88
2023-03-16T16:44:26.065Z,20.23
2023-03-16T16:46:53.822Z,20.25
2023-03-16T16:49:26.301Z,19.88
2023-03-16T16:51:53.719Z,20.17
2023-03-16T16:54:29.392Z,18.95
2023-03-16T16:56:58.608Z,18.65
2023-03-16T16:59:29.076Z,18.33
2023-03-16T17:02:00.458Z,19.27
2023-03-16T17:04:29.158Z,19.80
2023-03-16T17:07:02.154Z,19.35
2023-03-16T17:09:33.072Z,18.83
2023-03-16T17:12:01.577Z,19.63
2023-03-16T17:14:28.650Z,20.02
2023-03-16T17:16:57.102Z,22.27
2023-03-16T17:19:28.717Z,18.42
2023-03-16T17:21:57.628Z,19.45
2023-03-16T17:24:24.673Z,18.70
2023-03-16T17:26:54.102Z,19.73
2023-03-16T17:29:31.607Z,18.38
2023-03-16T17:32:03.513Z,23.25
2023-03-16T17:34:33.473Z,22.45
2023-03-16T17:37:01.949Z,21.25
2023-03-16T17:39:31.276Z,18.83
2023-03-16T17:42:02.980Z,19.05
2023-03-16T17:44:35.054Z,18.85
2023-03-16T17:47:01.812Z,22.13
2023-03-16T17:49:31.435Z,19.55
2023-03-16T17:51:58.143Z,18.98
2023-03-16T17:54:24.811Z,19.45
2023-03-16T17:57:00.551Z,24.50
2023-03-16T17:59:36.282Z,24.35
2023-03-16T18:02:03.066Z,19.83
2023-03-16T18:04:29.858Z,20.23
2023-03-16T18:06:56.735Z,18.83
2023-03-16T18:09:23.431Z,19.90
2023-03-16T18:11:51.371Z,20.25
2023-03-16T18:14:37.536Z,21.33
2023-03-16T18:17:15.766Z,18.88
2023-03-16T18:19:43.610Z,19.17
2023-03-16T18:22:21.966Z,19.40
2023-03-16T18:24:53.125Z,20.95
2023-03-16T18:27:20.391Z,20.05
2023-03-16T18:29:48.293Z,20.38
2023-03-16T18:32:27.465Z,23.05
2023-03-16T18:34:54.871Z,20.95
2023-03-16T18:37:30.540Z,19.70
2023-03-16T18:39:57.357Z,19.25
2023-03-16T18:42:27.702Z,19.90
2023-03-16T18:44:54.416Z,21.48
2023-03-16T18:47:24.084Z,19.55
2023-03-16T18:49:54.091Z,22.42
2023-03-16T18:52:30.721Z,19.27
2023-03-16T18:54:58.417Z,22.15
2023-03-16T18:59:56.396Z,22.58
2023-03-16T19:02:31.391Z,19.85
2023-03-16T19:05:00.664Z,18.95
2023-03-16T19:07:37.865Z,25.58
2023-03-16T19:10:29.506Z,27.38
2023-03-16T19:12:56.357Z,18.83
2023-03-16T19:15:34.031Z,19.05
2023-03-16T19:18:00.784Z,18.95
2023-03-16T19:20:29.991Z,22.80
2023-03-16T19:23:05.980Z,19.00
2023-03-16T19:25:36.641Z,17.45
2023-03-16T19:28:08.931Z,18.77
2023-03-16T19:30:44.852Z,20.02
2023-03-16T19:33:18.959Z,20.20
2023-03-16T19:38:26.386Z,20.17
2023-03-16T19:40:59.058Z,22.58
2023-03-16T19:43:27.757Z,19.45
2023-03-16T19:45:56.626Z,18.38
2023-03-16T19:48:33.396Z,21.23
2023-03-16T19:51:01.021Z,18.77
2023-03-16T19:53:27.683Z,18.77
2023-03-16T19:55:54.600Z,17.90
2023-03-16T19:58:34.970Z,23.92
2023-03-16T20:01:02.292Z,19.88
2023-03-16T20:03:33.291Z,20.90
2023-03-16T20:05:59.945Z,19.15
2023-03-16T20:08:29.120Z,20.05
2023-03-16T20:11:07.549Z,17.83
2023-03-16T20:13:40.529Z,19.98
2023-03-16T20:16:08.250Z,20.30
2023-03-16T20:21:02.159Z,19.20
2023-03-16T20:23:30.688Z,19.05
2023-03-16T20:26:02.020Z,20.92
2023-03-16T20:28:37.098Z,18.20
2023-03-16T20:31:08.329Z,18.40
2023-03-16T20:33:35.166Z,19.25
2023-03-16T20:36:02.860Z,18.35
2023-03-16T20:40:56.759Z,18.70
2023-03-16T20:43:23.808Z,20.48
2023-03-16T20:45:52.841Z,19.15
2023-03-16T20:48:19.586Z,21.10
2023-03-16T20:50:46.364Z,17.42
2023-03-16T20:53:13.063Z,17.95
2023-03-16T20:55:39.951Z,18.30
2023-03-16T20:58:25.584Z,17.52
2023-03-16T21:00:57.873Z,21.73
2023-03-16T21:03:33.778Z,17.45
2023-03-16T21:06:00.629Z,18.30
2023-03-16T21:08:27.524Z,17.02
2023-03-16T21:11:03.474Z,22.42
2023-03-16T21:13:32.598Z,22.30
2023-03-16T21:16:01.850Z,18.45
2023-03-16T21:18:29.568Z,20.17
2023-03-16T21:20:56.417Z,18.92
2023-03-16T21:23:27.346Z,19.20
2023-03-16T21:26:01.556Z,19.38
2023-03-16T21:28:31.861Z,19.65
2023-03-16T21:30:59.221Z,18.80
2023-03-16T21:33:56.921Z,19.40
2023-03-16T21:36:31.459Z,19.33
2023-03-16T21:38:58.078Z,20.70
2023-03-16T21:41:24.809Z,20.73
2023-03-16T21:43:54.579Z,23.95
2023-03-16T21:46:23.442Z,19.98
2023-03-16T21:48:58.396Z,19.70
2023-03-16T21:51:31.490Z,18.77
2023-03-16T21:53:58.231Z,18.95
2023-03-16T21:56:26.262Z,18.70
2023-03-16T21:58:54.437Z,20.95
2023-03-16T22:01:27.997Z,23.48
2023-03-16T22:04:02.835Z,20.63
2023-03-16T22:06:30.105Z,19.33
2023-03-16T22:09:02.234Z,19.20
2023-03-16T22:11:30.844Z,19.45
2023-03-16T22:13:59.223Z,19.25
2023-03-16T22:16:28.867Z,19.65
2023-03-16T22:18:57.025Z,18.77
2023-03-16T22:21:27.218Z,20.60
2023-03-16T22:23:58.384Z,19.85
2023-03-16T22:26:29.515Z,20.05
2023-03-16T22:28:57.153Z,19.13
2023-03-16T22:31:33.561Z,19.90
2023-03-16T22:34:03.745Z,18.88
2023-03-16T22:36:32.280Z,19.75
2023-03-16T22:39:05.844Z,19.48
2023-03-16T22:41:35.867Z,18.27
2023-03-16T22:44:02.957Z,20.77
2023-03-16T22:46:30.099Z,17.98
2023-03-16T22:48:57.179Z,18.98
2023-03-16T22:51:32.168Z,20.05
2023-03-16T22:54:04.690Z,19.05
2023-03-16T22:56:32.607Z,19.23
2023-03-16T22:59:03.140Z,20.52
2023-03-16T23:01:40.593Z,20.40
2023-03-16T23:04:33.840Z,18.95
2023-03-16T23:09:27.142Z,20.27
2023-03-16T23:11:55.416Z,23.85
2023-03-16T23:14:25.893Z,21.42
2023-03-16T23:16:52.805Z,19.65
2023-03-16T23:19:25.757Z,20.67
2023-03-16T23:21:55.003Z,20.25
2023-03-16T23:24:25.584Z,18.92
2023-03-16T23:26:53.902Z,20.38
2023-03-16T23:29:21.729Z,19.52
2023-03-16T23:31:48.636Z,21.70
2023-03-16T23:34:19.188Z,24.02
2023-03-16T23:36:52.874Z,20.88
2023-03-16T23:39:19.680Z,23.13
2023-03-16T23:41:50.680Z,22.27
2023-03-16T23:44:28.620Z,20.38
2023-03-16T23:46:55.718Z,23.30
2023-03-16T23:49:34.440Z,20.65
2023-03-16T23:52:01.965Z,20.73
2023-03-16T23:54:40.700Z,20.15
2023-03-16T23:57:08.875Z,20.67
2023-03-16T23:59:41.325Z,20.13
